sensor_id;sensor_type;location;lat;lon;timestamp;temperature;humidity
11656;DHT22;5884;43.618;1.438;2022-10-31T05:46:41;15.90;99.90
11656;DHT22;5884;43.618;1.438;2022-10-31T05:49:08;15.90;99.90
11656;DHT22;5884;43.618;1.438;2022-10-31T05:51:36;15.80;99.90
11656;DHT22;5884;43.618;1.438;2022-10-31T05:54:03;15.80;99.90
11656;DHT22;5884;43.618;1.438;2022-10-31T05:56:30;15.70;99.90
11656;DHT22;5884;43.618;1.438;2022-10-31T05:58:57;15.70;99.90
11656;DHT22;5884;43.618;1.438;2022-10-31T06:01:25;15.70;99.90
11656;DHT22;5884;43.618;1.438;2022-10-31T06:03:53;15.60;99.90
11656;DHT22;5884;43.618;1.438;2022-10-31T06:06:20;15.60;99.90
11656;DHT22;5884;43.618;1.438;2022-10-31T06:08:48;15.50;99.90
11656;DHT22;5884;43.618;1.438;2022-10-31T06:11:15;15.50;99.90
11656;DHT22;5884;43.618;1.438;2022-10-31T06:13:42;15.50;99.90
11656;DHT22;5884;43.618;1.438;2022-10-31T06:16:09;15.50;99.90
11656;DHT22;5884;43.618;1.438;2022-10-31T06:18:36;15.50;99.90
11656;DHT22;5884;43.618;1.438;2022-10-31T06:21:05;15.50;99.90
11656;DHT22;5884;43.618;1.438;2022-10-31T06:23:32;15.50;99.90
11656;DHT22;5884;43.618;1.438;2022-10-31T06:25:59;15.50;99.90
11656;DHT22;5884;43.618;1.438;2022-10-31T06:28:27;15.50;99.90
11656;DHT22;5884;43.618;1.438;2022-10-31T06:30:54;15.50;99.90
11656;DHT22;5884;43.618;1.438;2022-10-31T06:33:21;15.50;99.90
11656;DHT22;5884;43.618;1.438;2022-10-31T06:35:48;15.50;99.90
11656;DHT22;5884;43.618;1.438;2022-10-31T06:38:17;15.50;99.90
11656;DHT22;5884;43.618;1.438;2022-10-31T06:40:44;15.50;99.90
11656;DHT22;5884;43.618;1.438;2022-10-31T06:43:11;15.50;99.90
11656;DHT22;5884;43.618;1.438;2022-10-31T06:45:40;15.50;99.90
11656;DHT22;5884;43.618;1.438;2022-10-31T06:48:07;15.50;99.90
11656;DHT22;5884;43.618;1.438;2022-10-31T06:50:34;15.50;99.90
11656;DHT22;5884;43.618;1.438;2022-10-31T06:53:02;15.60;99.90
11656;DHT22;5884;43.618;1.438;2022-10-31T06:55:30;15.60;99.90
11656;DHT22;5884;43.618;1.438;2022-10-31T06:57:59;15.70;99.90
11656;DHT22;5884;43.618;1.438;2022-10-31T07:00:28;15.80;99.90
11656;DHT22;5884;43.618;1.438;2022-10-31T07:02:56;15.80;99.90
11656;DHT22;5884;43.618;1.438;2022-10-31T07:05:25;15.80;99.90
11656;DHT22;5884;43.618;1.438;2022-10-31T07:07:53;15.90;99.90
11656;DHT22;5884;43.618;1.438;2022-10-31T07:10:21;15.90;99.90
11656;DHT22;5884;43.618;1.438;2022-10-31T07:12:54;16.00;99.90
11656;DHT22;5884;43.618;1.438;2022-10-31T07:15:21;16.00;99.90
11656;DHT22;5884;43.618;1.438;2022-10-31T07:17:49;16.10;99.90
11656;DHT22;5884;43.618;1.438;2022-10-31T07:20:16;16.20;99.90
11656;DHT22;5884;43.618;1.438;2022-10-31T07:22:44;16.20;99.90
11656;DHT22;5884;43.618;1.438;2022-10-31T07:25:11;16.20;99.90
11656;DHT22;5884;43.618;1.438;2022-10-31T07:27:39;16.30;99.90
11656;DHT22;5884;43.618;1.438;2022-10-31T07:30:10;16.30;99.90
11656;DHT22;5884;43.618;1.438;2022-10-31T07:32:38;16.40;99.90
11656;DHT22;5884;43.618;1.438;2022-10-31T07:35:07;16.40;99.90
11656;DHT22;5884;43.618;1.438;2022-10-31T07:37:34;16.30;99.90
11656;DHT22;5884;43.618;1.438;2022-10-31T07:40:02;16.40;99.90
11656;DHT22;5884;43.618;1.438;2022-10-31T07:42:34;16.40;99.90
11656;DHT22;5884;43.618;1.438;2022-10-31T07:45:02;16.40;99.90
11656;DHT22;5884;43.618;1.438;2022-10-31T07:47:38;16.30;99.90
11656;DHT22;5884;43.618;1.438;2022-10-31T07:50:06;16.40;99.90
11656;DHT22;5884;43.618;1.438;2022-10-31T07:52:34;16.40;99.90
11656;DHT22;5884;43.618;1.438;2022-10-31T07:55:01;16.30;99.90
11656;DHT22;5884;43.618;1.438;2022-10-31T07:57:29;16.30;99.90
11656;DHT22;5884;43.618;1.438;2022-10-31T07:59:56;16.30;99.90
11656;DHT22;5884;43.618;1.438;2022-10-31T08:02:23;16.30;99.90
11656;DHT22;5884;43.618;1.438;2022-10-31T08:04:52;16.30;99.90
11656;DHT22;5884;43.618;1.438;2022-10-31T08:07:20;16.30;99.90
11656;DHT22;5884;43.618;1.438;2022-10-31T08:09:47;16.30;99.90
11656;DHT22;5884;43.618;1.438;2022-10-31T08:12:14;16.50;99.90
11656;DHT22;5884;43.618;1.438;2022-10-31T08:14:42;16.60;99.90
11656;DHT22;5884;43.618;1.438;2022-10-31T08:17:09;16.80;99.90
11656;DHT22;5884;43.618;1.438;2022-10-31T08:19:37;17.10;99.90
11656;DHT22;5884;43.618;1.438;2022-10-31T08:22:06;17.50;99.90
11656;DHT22;5884;43.618;1.438;2022-10-31T08:24:33;17.90;99.90
11656;DHT22;5884;43.618;1.438;2022-10-31T08:27:00;18.30;99.90
11656;DHT22;5884;43.618;1.438;2022-10-31T08:29:27;18.50;99.90
11656;DHT22;5884;43.618;1.438;2022-10-31T08:31:55;18.80;99.90
11656;DHT22;5884;43.618;1.438;2022-10-31T08:34:24;19.00;99.90
11656;DHT22;5884;43.618;1.438;2022-10-31T08:36:52;19.20;99.90
11656;DHT22;5884;43.618;1.438;2022-10-31T08:39:20;19.30;99.90
11656;DHT22;5884;43.618;1.438;2022-10-31T08:41:47;19.40;99.90
11656;DHT22;5884;43.618;1.438;2022-10-31T08:44:15;19.40;99.90
11656;DHT22;5884;43.618;1.438;2022-10-31T08:46:43;19.50;99.90
11656;DHT22;5884;43.618;1.438;2022-10-31T08:49:10;19.60;99.90
11656;DHT22;5884;43.618;1.438;2022-10-31T08:51:37;19.70;99.90
11656;DHT22;5884;43.618;1.438;2022-10-31T08:54:04;19.80;99.90
11656;DHT22;5884;43.618;1.438;2022-10-31T08:56:33;19.80;99.90
11656;DHT22;5884;43.618;1.438;2022-10-31T08:59:00;19.90;99.90
11656;DHT22;5884;43.618;1.438;2022-10-31T09:01:27;20.00;99.90
11656;DHT22;5884;43.618;1.438;2022-10-31T09:03:55;20.20;99.90
11656;DHT22;5884;43.618;1.438;2022-10-31T09:06:22;20.30;99.90
11656;DHT22;5884;43.618;1.438;2022-10-31T09:08:49;20.30;99.90
11656;DHT22;5884;43.618;1.438;2022-10-31T09:11:16;20.40;99.90
11656;DHT22;5884;43.618;1.438;2022-10-31T09:13:45;20.40;99.90
11656;DHT22;5884;43.618;1.438;2022-10-31T09:16:12;20.50;99.90
11656;DHT22;5884;43.618;1.438;2022-10-31T09:18:39;20.50;99.90
11656;DHT22;5884;43.618;1.438;2022-10-31T09:21:07;20.50;99.90
11656;DHT22;5884;43.618;1.438;2022-10-31T09:23:35;20.50;99.90
11656;DHT22;5884;43.618;1.438;2022-10-31T09:26:02;20.60;99.90
11656;DHT22;5884;43.618;1.438;2022-10-31T09:28:29;20.50;99.90
11656;DHT22;5884;43.618;1.438;2022-10-31T09:30:58;20.40;99.90
11656;DHT22;5884;43.618;1.438;2022-10-31T09:33:25;20.50;99.90
11656;DHT22;5884;43.618;1.438;2022-10-31T09:35:53;20.40;99.90
11656;DHT22;5884;43.618;1.438;2022-10-31T09:38:20;20.40;99.90
11656;DHT22;5884;43.618;1.438;2022-10-31T09:40:54;20.50;99.90
11656;DHT22;5884;43.618;1.438;2022-10-31T09:43:30;20.60;99.90
11656;DHT22;5884;43.618;1.438;2022-10-31T09:46:07;20.70;99.90
11656;DHT22;5884;43.618;1.438;2022-10-31T09:48:49;20.90;99.90
11656;DHT22;5884;43.618;1.438;2022-10-31T09:51:29;20.90;99.90
11656;DHT22;5884;43.618;1.438;2022-10-31T09:54:01;20.80;99.90
11656;DHT22;5884;43.618;1.438;2022-10-31T09:56:32;20.90;99.90
11656;DHT22;5884;43.618;1.438;2022-10-31T09:59:02;21.00;99.90
11656;DHT22;5884;43.618;1.438;2022-10-31T10:01:47;21.10;99.90
11656;DHT22;5884;43.618;1.438;2022-10-31T10:04:26;21.10;99.90
11656;DHT22;5884;43.618;1.438;2022-10-31T10:06:59;21.20;99.90
11656;DHT22;5884;43.618;1.438;2022-10-31T10:09:29;21.10;99.90
11656;DHT22;5884;43.618;1.438;2022-10-31T10:12:05;21.10;99.90
11656;DHT22;5884;43.618;1.438;2022-10-31T10:14:47;21.20;99.90
11656;DHT22;5884;43.618;1.438;2022-10-31T10:17:30;21.30;99.90
11656;DHT22;5884;43.618;1.438;2022-10-31T10:20:18;21.40;99.90
11656;DHT22;5884;43.618;1.438;2022-10-31T10:22:57;21.60;99.90
11656;DHT22;5884;43.618;1.438;2022-10-31T10:25:37;21.70;99.90
11656;DHT22;5884;43.618;1.438;2022-10-31T10:28:13;21.80;99.90
11656;DHT22;5884;43.618;1.438;2022-10-31T10:30:48;21.80;99.90
11656;DHT22;5884;43.618;1.438;2022-10-31T10:33:23;21.90;99.90
11656;DHT22;5884;43.618;1.438;2022-10-31T10:35:55;21.90;99.90
11656;DHT22;5884;43.618;1.438;2022-10-31T10:38:28;22.00;99.90
11656;DHT22;5884;43.618;1.438;2022-10-31T10:41:02;22.00;99.90
11656;DHT22;5884;43.618;1.438;2022-10-31T10:43:33;22.00;99.90
11656;DHT22;5884;43.618;1.438;2022-10-31T10:46:18;22.20;99.90
11656;DHT22;5884;43.618;1.438;2022-10-31T10:49:18;22.30;99.90
11656;DHT22;5884;43.618;1.438;2022-10-31T10:51:49;22.40;99.90
11656;DHT22;5884;43.618;1.438;2022-10-31T10:54:50;22.40;99.90
11656;DHT22;5884;43.618;1.438;2022-10-31T10:57:41;22.60;99.90
11656;DHT22;5884;43.618;1.438;2022-10-31T11:00:21;22.80;99.90
11656;DHT22;5884;43.618;1.438;2022-10-31T11:02:49;22.90;99.90
11656;DHT22;5884;43.618;1.438;2022-10-31T11:05:26;22.80;99.90
11656;DHT22;5884;43.618;1.438;2022-10-31T11:07:57;22.90;99.90
11656;DHT22;5884;43.618;1.438;2022-10-31T11:10:24;22.90;99.90
11656;DHT22;5884;43.618;1.438;2022-10-31T11:13:06;22.90;99.90
11656;DHT22;5884;43.618;1.438;2022-10-31T11:15:55;23.00;99.90
11656;DHT22;5884;43.618;1.438;2022-10-31T11:18:26;23.20;99.90
11656;DHT22;5884;43.618;1.438;2022-10-31T11:20:57;23.20;99.90
11656;DHT22;5884;43.618;1.438;2022-10-31T11:23:27;23.30;99.90
11656;DHT22;5884;43.618;1.438;2022-10-31T11:25:56;23.40;99.90
11656;DHT22;5884;43.618;1.438;2022-10-31T11:28:25;23.30;99.90
11656;DHT22;5884;43.618;1.438;2022-10-31T11:30:56;23.30;99.90
11656;DHT22;5884;43.618;1.438;2022-10-31T11:33:29;23.40;99.90
11656;DHT22;5884;43.618;1.438;2022-10-31T11:36:00;23.50;99.90
11656;DHT22;5884;43.618;1.438;2022-10-31T11:38:33;23.60;99.90
11656;DHT22;5884;43.618;1.438;2022-10-31T11:41:09;23.60;99.90
11656;DHT22;5884;43.618;1.438;2022-10-31T11:43:44;23.70;99.90
11656;DHT22;5884;43.618;1.438;2022-10-31T11:46:19;23.60;99.90
11656;DHT22;5884;43.618;1.438;2022-10-31T11:48:50;23.70;99.90
11656;DHT22;5884;43.618;1.438;2022-10-31T11:51:26;23.80;99.90
11656;DHT22;5884;43.618;1.438;2022-10-31T11:53:57;23.80;99.90
11656;DHT22;5884;43.618;1.438;2022-10-31T11:56:25;23.90;99.90
11656;DHT22;5884;43.618;1.438;2022-10-31T11:58:56;23.90;99.90
11656;DHT22;5884;43.618;1.438;2022-10-31T12:01:26;24.00;99.90
11656;DHT22;5884;43.618;1.438;2022-10-31T12:04:03;24.20;99.90
11656;DHT22;5884;43.618;1.438;2022-10-31T12:06:36;24.00;99.90
11656;DHT22;5884;43.618;1.438;2022-10-31T12:09:16;23.80;99.90
11656;DHT22;5884;43.618;1.438;2022-10-31T12:11:59;23.80;99.90
11656;DHT22;5884;43.618;1.438;2022-10-31T12:14:55;24.00;99.90
11656;DHT22;5884;43.618;1.438;2022-10-31T12:17:34;23.90;99.90
11656;DHT22;5884;43.618;1.438;2022-10-31T12:20:16;24.00;99.90
11656;DHT22;5884;43.618;1.438;2022-10-31T12:22:55;24.10;99.90
11656;DHT22;5884;43.618;1.438;2022-10-31T12:25:37;24.20;99.90
11656;DHT22;5884;43.618;1.438;2022-10-31T12:28:39;24.20;99.90
11656;DHT22;5884;43.618;1.438;2022-10-31T12:31:26;24.10;99.90
11656;DHT22;5884;43.618;1.438;2022-10-31T12:34:14;24.10;99.90
11656;DHT22;5884;43.618;1.438;2022-10-31T12:37:13;24.10;99.90
11656;DHT22;5884;43.618;1.438;2022-10-31T12:39:56;24.10;99.90
11656;DHT22;5884;43.618;1.438;2022-10-31T12:42:46;24.20;99.90
11656;DHT22;5884;43.618;1.438;2022-10-31T12:45:36;24.20;99.90
11656;DHT22;5884;43.618;1.438;2022-10-31T12:48:26;24.30;99.90
11656;DHT22;5884;43.618;1.438;2022-10-31T12:51:07;24.20;99.90
11656;DHT22;5884;43.618;1.438;2022-10-31T12:53:49;24.20;99.90
11656;DHT22;5884;43.618;1.438;2022-10-31T12:56:33;24.10;99.90
11656;DHT22;5884;43.618;1.438;2022-10-31T12:59:15;24.00;99.90
11656;DHT22;5884;43.618;1.438;2022-10-31T13:01:53;24.00;99.90
11656;DHT22;5884;43.618;1.438;2022-10-31T13:04:35;23.90;99.90
11656;DHT22;5884;43.618;1.438;2022-10-31T13:07:09;23.90;99.90
11656;DHT22;5884;43.618;1.438;2022-10-31T13:09:42;23.90;99.90
11656;DHT22;5884;43.618;1.438;2022-10-31T13:12:17;23.90;99.90
11656;DHT22;5884;43.618;1.438;2022-10-31T13:14:49;23.90;99.90
11656;DHT22;5884;43.618;1.438;2022-10-31T13:17:23;23.90;99.90
11656;DHT22;5884;43.618;1.438;2022-10-31T13:20:01;23.90;99.90
11656;DHT22;5884;43.618;1.438;2022-10-31T13:22:38;24.00;99.90
11656;DHT22;5884;43.618;1.438;2022-10-31T13:25:11;24.10;99.90
11656;DHT22;5884;43.618;1.438;2022-10-31T13:27:47;24.10;99.90
11656;DHT22;5884;43.618;1.438;2022-10-31T13:30:18;24.20;99.90
11656;DHT22;5884;43.618;1.438;2022-10-31T13:32:51;24.30;99.90
11656;DHT22;5884;43.618;1.438;2022-10-31T13:35:26;24.50;99.90
11656;DHT22;5884;43.618;1.438;2022-10-31T13:38:05;24.40;99.90
11656;DHT22;5884;43.618;1.438;2022-10-31T13:40:44;24.30;99.90
11656;DHT22;5884;43.618;1.438;2022-10-31T13:43:27;24.20;99.90
11656;DHT22;5884;43.618;1.438;2022-10-31T13:45:57;24.10;99.90
11656;DHT22;5884;43.618;1.438;2022-10-31T13:48:38;24.00;99.90
11656;DHT22;5884;43.618;1.438;2022-10-31T13:51:10;24.00;99.90
11656;DHT22;5884;43.618;1.438;2022-10-31T13:53:44;24.00;99.90
11656;DHT22;5884;43.618;1.438;2022-10-31T13:56:20;24.00;99.90
11656;DHT22;5884;43.618;1.438;2022-10-31T14:01:48;23.90;99.90
11656;DHT22;5884;43.618;1.438;2022-10-31T14:04:19;23.80;99.90
11656;DHT22;5884;43.618;1.438;2022-10-31T14:06:54;23.70;99.90
11656;DHT22;5884;43.618;1.438;2022-10-31T14:09:30;23.60;99.90
11656;DHT22;5884;43.618;1.438;2022-10-31T14:12:05;23.60;99.90
11656;DHT22;5884;43.618;1.438;2022-10-31T14:14:46;23.60;99.90
11656;DHT22;5884;43.618;1.438;2022-10-31T14:17:19;23.50;99.90
11656;DHT22;5884;43.618;1.438;2022-10-31T14:20:00;23.50;99.90
11656;DHT22;5884;43.618;1.438;2022-10-31T14:22:31;23.40;99.90
11656;DHT22;5884;43.618;1.438;2022-10-31T14:24:58;23.40;99.90
11656;DHT22;5884;43.618;1.438;2022-10-31T14:27:45;23.30;99.90
11656;DHT22;5884;43.618;1.438;2022-10-31T14:30:19;23.30;99.90
11656;DHT22;5884;43.618;1.438;2022-10-31T14:32:51;23.20;99.90
11656;DHT22;5884;43.618;1.438;2022-10-31T14:35:20;23.20;99.90
11656;DHT22;5884;43.618;1.438;2022-10-31T14:38:15;23.10;99.90
11656;DHT22;5884;43.618;1.438;2022-10-31T14:41:30;23.10;99.90
11656;DHT22;5884;43.618;1.438;2022-10-31T14:44:24;23.00;99.90
11656;DHT22;5884;43.618;1.438;2022-10-31T14:47:13;23.00;99.90
11656;DHT22;5884;43.618;1.438;2022-10-31T14:50:08;23.00;99.90
11656;DHT22;5884;43.618;1.438;2022-10-31T14:52:47;22.90;99.90
11656;DHT22;5884;43.618;1.438;2022-10-31T14:55:16;22.90;99.90
11656;DHT22;5884;43.618;1.438;2022-10-31T14:57:49;22.80;99.90
11656;DHT22;5884;43.618;1.438;2022-10-31T15:00:20;22.80;99.90
11656;DHT22;5884;43.618;1.438;2022-10-31T15:02:59;22.70;99.90
11656;DHT22;5884;43.618;1.438;2022-10-31T15:05:42;22.70;99.90
11656;DHT22;5884;43.618;1.438;2022-10-31T15:08:14;22.70;99.90
11656;DHT22;5884;43.618;1.438;2022-10-31T15:10:54;22.60;99.90
11656;DHT22;5884;43.618;1.438;2022-10-31T15:13:22;22.60;99.90
11656;DHT22;5884;43.618;1.438;2022-10-31T15:15:51;22.60;99.90
11656;DHT22;5884;43.618;1.438;2022-10-31T15:18:24;22.50;99.90
11656;DHT22;5884;43.618;1.438;2022-10-31T15:20:54;22.50;99.90
11656;DHT22;5884;43.618;1.438;2022-10-31T15:23:25;22.50;99.90
11656;DHT22;5884;43.618;1.438;2022-10-31T15:25:58;22.40;99.90
11656;DHT22;5884;43.618;1.438;2022-10-31T15:28:26;22.40;99.90
11656;DHT22;5884;43.618;1.438;2022-10-31T15:30:55;22.40;99.90
11656;DHT22;5884;43.618;1.438;2022-10-31T15:33:28;22.30;99.90
11656;DHT22;5884;43.618;1.438;2022-10-31T15:35:58;22.30;99.90
11656;DHT22;5884;43.618;1.438;2022-10-31T15:38:27;22.30;99.90
11656;DHT22;5884;43.618;1.438;2022-10-31T15:40:57;22.20;99.90
11656;DHT22;5884;43.618;1.438;2022-10-31T15:43:27;22.20;99.90
11656;DHT22;5884;43.618;1.438;2022-10-31T15:46:00;22.20;99.90
11656;DHT22;5884;43.618;1.438;2022-10-31T15:48:30;22.10;99.90
11656;DHT22;5884;43.618;1.438;2022-10-31T15:51:00;22.10;99.90
11656;DHT22;5884;43.618;1.438;2022-10-31T15:53:33;22.10;99.90
11656;DHT22;5884;43.618;1.438;2022-10-31T15:56:05;22.00;99.90
11656;DHT22;5884;43.618;1.438;2022-10-31T15:58:41;22.00;99.90
11656;DHT22;5884;43.618;1.438;2022-10-31T16:01:21;22.00;99.90
11656;DHT22;5884;43.618;1.438;2022-10-31T16:04:03;21.90;99.90
11656;DHT22;5884;43.618;1.438;2022-10-31T16:06:33;21.90;99.90
11656;DHT22;5884;43.618;1.438;2022-10-31T16:09:01;21.90;99.90
11656;DHT22;5884;43.618;1.438;2022-10-31T16:11:34;21.90;99.90
11656;DHT22;5884;43.618;1.438;2022-10-31T16:14:04;21.90;99.90
11656;DHT22;5884;43.618;1.438;2022-10-31T16:16:40;21.90;99.90
11656;DHT22;5884;43.618;1.438;2022-10-31T16:19:17;21.90;99.90
11656;DHT22;5884;43.618;1.438;2022-10-31T16:21:48;21.80;99.90
11656;DHT22;5884;43.618;1.438;2022-10-31T16:24:20;21.80;99.90
11656;DHT22;5884;43.618;1.438;2022-10-31T16:26:52;21.70;99.90
11656;DHT22;5884;43.618;1.438;2022-10-31T16:29:26;21.70;99.90
11656;DHT22;5884;43.618;1.438;2022-10-31T16:31:54;21.60;99.90
11656;DHT22;5884;43.618;1.438;2022-10-31T16:34:23;21.60;99.90
11656;DHT22;5884;43.618;1.438;2022-10-31T16:36:51;21.60;99.90
11656;DHT22;5884;43.618;1.438;2022-10-31T16:39:18;21.60;99.90
11656;DHT22;5884;43.618;1.438;2022-10-31T16:41:47;21.60;99.90
11656;DHT22;5884;43.618;1.438;2022-10-31T16:44:19;21.50;99.90
11656;DHT22;5884;43.618;1.438;2022-10-31T16:46:49;21.50;99.90
11656;DHT22;5884;43.618;1.438;2022-10-31T16:49:35;21.50;99.90
11656;DHT22;5884;43.618;1.438;2022-10-31T16:52:03;21.50;99.90
11656;DHT22;5884;43.618;1.438;2022-10-31T16:54:30;21.40;99.90
11656;DHT22;5884;43.618;1.438;2022-10-31T16:56:58;21.40;99.90
11656;DHT22;5884;43.618;1.438;2022-10-31T16:59:27;21.30;99.90
11656;DHT22;5884;43.618;1.438;2022-10-31T17:01:54;21.40;99.90
11656;DHT22;5884;43.618;1.438;2022-10-31T17:04:22;21.30;99.90
11656;DHT22;5884;43.618;1.438;2022-10-31T17:06:51;21.30;99.90
11656;DHT22;5884;43.618;1.438;2022-10-31T17:09:18;21.20;99.90
11656;DHT22;5884;43.618;1.438;2022-10-31T17:11:46;21.20;99.90
11656;DHT22;5884;43.618;1.438;2022-10-31T17:14:14;21.20;99.90
11656;DHT22;5884;43.618;1.438;2022-10-31T17:16:42;21.10;99.90
11656;DHT22;5884;43.618;1.438;2022-10-31T17:19:10;21.10;99.90
11656;DHT22;5884;43.618;1.438;2022-10-31T17:21:37;21.10;99.90
11656;DHT22;5884;43.618;1.438;2022-10-31T17:24:08;21.00;99.90
11656;DHT22;5884;43.618;1.438;2022-10-31T17:26:42;21.00;99.90
11656;DHT22;5884;43.618;1.438;2022-10-31T17:29:09;21.00;99.90
11656;DHT22;5884;43.618;1.438;2022-10-31T17:31:37;21.00;99.90
11656;DHT22;5884;43.618;1.438;2022-10-31T17:34:05;21.00;99.90
11656;DHT22;5884;43.618;1.438;2022-10-31T17:36:33;21.00;99.90
11656;DHT22;5884;43.618;1.438;2022-10-31T17:39:01;21.10;99.90
11656;DHT22;5884;43.618;1.438;2022-10-31T17:41:31;21.10;99.90
11656;DHT22;5884;43.618;1.438;2022-10-31T17:43:58;21.00;99.90
11656;DHT22;5884;43.618;1.438;2022-10-31T17:46:26;21.00;99.90
11656;DHT22;5884;43.618;1.438;2022-10-31T17:48:54;21.00;99.90
11656;DHT22;5884;43.618;1.438;2022-10-31T17:51:21;21.00;99.90
11656;DHT22;5884;43.618;1.438;2022-10-31T17:53:48;21.00;99.90
11656;DHT22;5884;43.618;1.438;2022-10-31T17:56:15;20.90;99.90
11656;DHT22;5884;43.618;1.438;2022-10-31T17:58:44;20.90;99.90
11656;DHT22;5884;43.618;1.438;2022-10-31T18:01:13;20.90;99.90
11656;DHT22;5884;43.618;1.438;2022-10-31T18:03:41;20.90;99.90
11656;DHT22;5884;43.618;1.438;2022-10-31T18:06:09;20.80;99.90
11656;DHT22;5884;43.618;1.438;2022-10-31T18:08:40;20.80;99.90
11656;DHT22;5884;43.618;1.438;2022-10-31T18:11:08;20.80;99.90
11656;DHT22;5884;43.618;1.438;2022-10-31T18:13:37;20.70;99.90
11656;DHT22;5884;43.618;1.438;2022-10-31T18:16:08;20.80;99.90
11656;DHT22;5884;43.618;1.438;2022-10-31T18:18:36;20.70;99.90
11656;DHT22;5884;43.618;1.438;2022-10-31T18:21:03;20.70;99.90
11656;DHT22;5884;43.618;1.438;2022-10-31T18:23:31;20.70;99.90
11656;DHT22;5884;43.618;1.438;2022-10-31T18:25:58;20.60;99.90
11656;DHT22;5884;43.618;1.438;2022-10-31T18:28:25;20.60;99.90
11656;DHT22;5884;43.618;1.438;2022-10-31T18:30:52;20.60;99.90
11656;DHT22;5884;43.618;1.438;2022-10-31T18:33:22;20.60;99.90
11656;DHT22;5884;43.618;1.438;2022-10-31T18:35:49;20.50;99.90
11656;DHT22;5884;43.618;1.438;2022-10-31T18:38:16;20.60;99.90
11656;DHT22;5884;43.618;1.438;2022-10-31T18:40:43;20.50;99.90
11656;DHT22;5884;43.618;1.438;2022-10-31T18:43:11;20.50;99.90
11656;DHT22;5884;43.618;1.438;2022-10-31T18:45:38;20.50;99.90
11656;DHT22;5884;43.618;1.438;2022-10-31T18:48:05;20.50;99.90
11656;DHT22;5884;43.618;1.438;2022-10-31T18:50:38;20.50;99.90
11656;DHT22;5884;43.618;1.438;2022-10-31T18:53:05;20.50;99.90
11656;DHT22;5884;43.618;1.438;2022-10-31T18:55:32;20.50;99.90
11656;DHT22;5884;43.618;1.438;2022-10-31T18:57:59;20.50;99.90
11656;DHT22;5884;43.618;1.438;2022-10-31T19:00:27;20.50;99.90
11656;DHT22;5884;43.618;1.438;2022-10-31T19:02:54;20.60;99.90
11656;DHT22;5884;43.618;1.438;2022-10-31T19:05:21;20.50;99.90
11656;DHT22;5884;43.618;1.438;2022-10-31T19:07:50;20.50;99.90
11656;DHT22;5884;43.618;1.438;2022-10-31T19:10:17;20.40;99.90
11656;DHT22;5884;43.618;1.438;2022-10-31T19:12:44;20.40;99.90
11656;DHT22;5884;43.618;1.438;2022-10-31T19:15:11;20.40;99.90
11656;DHT22;5884;43.618;1.438;2022-10-31T19:17:39;20.40;99.90
11656;DHT22;5884;43.618;1.438;2022-10-31T19:20:07;20.40;99.90
11656;DHT22;5884;43.618;1.438;2022-10-31T19:22:35;20.40;99.90
11656;DHT22;5884;43.618;1.438;2022-10-31T19:25:04;20.40;99.90
11656;DHT22;5884;43.618;1.438;2022-10-31T19:27:32;20.40;99.90
11656;DHT22;5884;43.618;1.438;2022-10-31T19:29:59;20.30;99.90
11656;DHT22;5884;43.618;1.438;2022-10-31T19:32:26;20.30;99.90
11656;DHT22;5884;43.618;1.438;2022-10-31T19:34:54;20.30;99.90
11656;DHT22;5884;43.618;1.438;2022-10-31T19:37:21;20.30;99.90
11656;DHT22;5884;43.618;1.438;2022-10-31T19:39:48;20.30;99.90
11656;DHT22;5884;43.618;1.438;2022-10-31T19:42:17;20.30;99.90
11656;DHT22;5884;43.618;1.438;2022-10-31T19:44:44;20.20;99.90
11656;DHT22;5884;43.618;1.438;2022-10-31T19:47:11;20.30;99.90
11656;DHT22;5884;43.618;1.438;2022-10-31T19:49:38;20.20;99.90
11656;DHT22;5884;43.618;1.438;2022-10-31T19:52:06;20.20;99.90
11656;DHT22;5884;43.618;1.438;2022-10-31T19:54:33;20.20;99.90
11656;DHT22;5884;43.618;1.438;2022-10-31T19:57:00;20.20;99.90
11656;DHT22;5884;43.618;1.438;2022-10-31T19:59:29;20.20;99.90
11656;DHT22;5884;43.618;1.438;2022-10-31T20:01:56;20.20;99.90
11656;DHT22;5884;43.618;1.438;2022-10-31T20:04:23;20.20;99.90
11656;DHT22;5884;43.618;1.438;2022-10-31T20:06:51;20.20;99.90
11656;DHT22;5884;43.618;1.438;2022-10-31T20:09:18;20.10;99.90
11656;DHT22;5884;43.618;1.438;2022-10-31T20:11:46;20.10;99.90
11656;DHT22;5884;43.618;1.438;2022-10-31T20:14:15;20.10;99.90
11656;DHT22;5884;43.618;1.438;2022-10-31T20:16:44;20.10;99.90
11656;DHT22;5884;43.618;1.438;2022-10-31T20:19:12;20.10;99.90
11656;DHT22;5884;43.618;1.438;2022-10-31T20:21:39;20.10;99.90
11656;DHT22;5884;43.618;1.438;2022-10-31T20:24:08;20.00;99.90
11656;DHT22;5884;43.618;1.438;2022-10-31T20:26:38;20.10;99.90
11656;DHT22;5884;43.618;1.438;2022-10-31T20:29:06;20.10;99.90
11656;DHT22;5884;43.618;1.438;2022-10-31T20:31:34;20.00;99.90
11656;DHT22;5884;43.618;1.438;2022-10-31T20:34:03;20.00;99.90
11656;DHT22;5884;43.618;1.438;2022-10-31T20:36:30;20.00;99.90
11656;DHT22;5884;43.618;1.438;2022-10-31T20:38:58;20.00;99.90
11656;DHT22;5884;43.618;1.438;2022-10-31T20:41:26;20.00;99.90
11656;DHT22;5884;43.618;1.438;2022-10-31T20:43:53;20.00;99.90
11656;DHT22;5884;43.618;1.438;2022-10-31T20:46:22;20.00;99.90
11656;DHT22;5884;43.618;1.438;2022-10-31T20:48:50;20.00;99.90
11656;DHT22;5884;43.618;1.438;2022-10-31T20:51:21;20.00;99.90
11656;DHT22;5884;43.618;1.438;2022-10-31T20:53:50;19.90;99.90
11656;DHT22;5884;43.618;1.438;2022-10-31T20:56:19;20.00;99.90
11656;DHT22;5884;43.618;1.438;2022-10-31T20:58:48;20.00;99.90
11656;DHT22;5884;43.618;1.438;2022-10-31T21:01:17;20.00;99.90
11656;DHT22;5884;43.618;1.438;2022-10-31T21:03:45;19.90;99.90
11656;DHT22;5884;43.618;1.438;2022-10-31T21:06:14;19.90;99.90
11656;DHT22;5884;43.618;1.438;2022-10-31T21:08:43;19.90;99.90
11656;DHT22;5884;43.618;1.438;2022-10-31T21:11:12;19.90;99.90
11656;DHT22;5884;43.618;1.438;2022-10-31T21:13:42;19.90;99.90
11656;DHT22;5884;43.618;1.438;2022-10-31T21:16:13;19.90;99.90
11656;DHT22;5884;43.618;1.438;2022-10-31T21:18:42;19.90;99.90
11656;DHT22;5884;43.618;1.438;2022-10-31T21:21:11;19.80;99.90
11656;DHT22;5884;43.618;1.438;2022-10-31T21:23:40;19.80;99.90
11656;DHT22;5884;43.618;1.438;2022-10-31T21:26:11;19.80;99.90
11656;DHT22;5884;43.618;1.438;2022-10-31T21:28:40;19.80;99.90
11656;DHT22;5884;43.618;1.438;2022-10-31T21:31:09;19.80;99.90
11656;DHT22;5884;43.618;1.438;2022-10-31T21:33:38;19.80;99.90
11656;DHT22;5884;43.618;1.438;2022-10-31T21:36:06;19.80;99.90
11656;DHT22;5884;43.618;1.438;2022-10-31T21:38:34;19.80;99.90
11656;DHT22;5884;43.618;1.438;2022-10-31T21:41:02;19.80;99.90
11656;DHT22;5884;43.618;1.438;2022-10-31T21:43:34;19.80;99.90
11656;DHT22;5884;43.618;1.438;2022-10-31T21:46:02;19.80;99.90
11656;DHT22;5884;43.618;1.438;2022-10-31T21:48:30;19.80;99.90
11656;DHT22;5884;43.618;1.438;2022-10-31T21:51:02;19.80;99.90
11656;DHT22;5884;43.618;1.438;2022-10-31T21:53:29;19.80;99.90
11656;DHT22;5884;43.618;1.438;2022-10-31T21:56:14;19.80;99.90
11656;DHT22;5884;43.618;1.438;2022-10-31T21:58:42;19.80;99.90
